Terminal Aerodrome Forecast
Issued by NWS Pocatello, ID

Home | Current Version | Previous Version | Text Only | Print | Product List | Glossary On
Versions: 1 2 3 4 5 6 7 8 9 10 11 12 13 14 15 16
000
FTUS45 KPIH 182300
TAFBYI
TAF
KBYI 182331Z 1900/1924 26015KT P6SM FEW050 FEW130
     FM190200 25010KT P6SM SKC
     FM190700 VRB05KT P6SM SCT180
     FM191800 29011KT P6SM FEW060 BKN160=

USA.gov is the U.S. government's official web portal to all federal, state and local government web resources and services.